sensor_id;sensor_type;location;lat;lon;timestamp;P1;durP1;ratioP1;P2;durP2;ratioP2
55112;SDS011;41006;50.920;3.456;2023-08-17T00:00:17;21.02;;;19.63;;
55112;SDS011;41006;50.920;3.456;2023-08-17T00:00:50;21.48;;;19.98;;
55112;SDS011;41006;50.920;3.456;2023-08-17T00:01:21;21.60;;;20.02;;
55112;SDS011;41006;50.920;3.456;2023-08-17T00:01:51;20.23;;;18.83;;
55112;SDS011;41006;50.920;3.456;2023-08-17T00:02:22;20.77;;;19.15;;
55112;SDS011;41006;50.920;3.456;2023-08-17T00:02:54;20.05;;;18.65;;
55112;SDS011;41006;50.920;3.456;2023-08-17T00:03:29;20.17;;;18.63;;
55112;SDS011;41006;50.920;3.456;2023-08-17T00:04:02;20.67;;;19.05;;
55112;SDS011;41006;50.920;3.456;2023-08-17T00:04:35;21.20;;;19.27;;
55112;SDS011;41006;50.920;3.456;2023-08-17T00:05:07;20.85;;;19.15;;
55112;SDS011;41006;50.920;3.456;2023-08-17T00:05:39;21.52;;;19.70;;
55112;SDS011;41006;50.920;3.456;2023-08-17T00:06:14;20.50;;;18.90;;
55112;SDS011;41006;50.920;3.456;2023-08-17T00:06:44;20.55;;;18.95;;
55112;SDS011;41006;50.920;3.456;2023-08-17T00:07:17;19.38;;;17.70;;
55112;SDS011;41006;50.920;3.456;2023-08-17T00:07:47;20.23;;;18.52;;
55112;SDS011;41006;50.920;3.456;2023-08-17T00:08:17;20.40;;;18.90;;
55112;SDS011;41006;50.920;3.456;2023-08-17T00:08:48;20.52;;;19.17;;
55112;SDS011;41006;50.920;3.456;2023-08-17T00:09:23;22.75;;;20.92;;
55112;SDS011;41006;50.920;3.456;2023-08-17T00:09:54;21.42;;;20.02;;
55112;SDS011;41006;50.920;3.456;2023-08-17T00:10:24;21.77;;;19.95;;
55112;SDS011;41006;50.920;3.456;2023-08-17T00:10:55;22.27;;;20.45;;
55112;SDS011;41006;50.920;3.456;2023-08-17T00:11:30;20.73;;;19.10;;
55112;SDS011;41006;50.920;3.456;2023-08-17T00:12:03;21.52;;;19.85;;
55112;SDS011;41006;50.920;3.456;2023-08-17T00:12:34;22.35;;;20.65;;
55112;SDS011;41006;50.920;3.456;2023-08-17T00:13:07;21.33;;;19.88;;
55112;SDS011;41006;50.920;3.456;2023-08-17T00:13:37;24.08;;;21.63;;
55112;SDS011;41006;50.920;3.456;2023-08-17T00:14:10;21.98;;;20.33;;
55112;SDS011;41006;50.920;3.456;2023-08-17T00:14:40;22.88;;;20.85;;
55112;SDS011;41006;50.920;3.456;2023-08-17T00:15:11;20.58;;;19.05;;
55112;SDS011;41006;50.920;3.456;2023-08-17T00:15:41;22.08;;;20.23;;
55112;SDS011;41006;50.920;3.456;2023-08-17T00:16:12;21.63;;;19.83;;
55112;SDS011;41006;50.920;3.456;2023-08-17T00:16:42;21.50;;;19.98;;
55112;SDS011;41006;50.920;3.456;2023-08-17T00:17:12;22.25;;;19.92;;
55112;SDS011;41006;50.920;3.456;2023-08-17T00:17:45;21.13;;;19.52;;
55112;SDS011;41006;50.920;3.456;2023-08-17T00:18:16;21.23;;;19.67;;
55112;SDS011;41006;50.920;3.456;2023-08-17T00:18:48;21.08;;;19.55;;
55112;SDS011;41006;50.920;3.456;2023-08-17T00:19:19;22.33;;;20.23;;
55112;SDS011;41006;50.920;3.456;2023-08-17T00:19:51;22.42;;;20.63;;
55112;SDS011;41006;50.920;3.456;2023-08-17T00:20:24;22.65;;;20.50;;
55112;SDS011;41006;50.920;3.456;2023-08-17T00:20:57;21.92;;;20.27;;
55112;SDS011;41006;50.920;3.456;2023-08-17T00:21:27;21.77;;;20.00;;
55112;SDS011;41006;50.920;3.456;2023-08-17T00:22:00;21.55;;;19.90;;
55112;SDS011;41006;50.920;3.456;2023-08-17T00:22:35;21.05;;;19.55;;
55112;SDS011;41006;50.920;3.456;2023-08-17T00:23:05;21.67;;;20.02;;
55112;SDS011;41006;50.920;3.456;2023-08-17T00:23:38;21.60;;;19.77;;
55112;SDS011;41006;50.920;3.456;2023-08-17T00:24:11;22.00;;;20.30;;
55112;SDS011;41006;50.920;3.456;2023-08-17T00:24:42;21.65;;;19.80;;
55112;SDS011;41006;50.920;3.456;2023-08-17T00:25:14;22.02;;;20.42;;
55112;SDS011;41006;50.920;3.456;2023-08-17T00:25:49;22.75;;;21.05;;
55112;SDS011;41006;50.920;3.456;2023-08-17T00:26:20;21.35;;;19.58;;
55112;SDS011;41006;50.920;3.456;2023-08-17T00:26:50;22.02;;;20.23;;
55112;SDS011;41006;50.920;3.456;2023-08-17T00:27:22;21.70;;;20.00;;
55112;SDS011;41006;50.920;3.456;2023-08-17T00:27:55;22.15;;;20.30;;
55112;SDS011;41006;50.920;3.456;2023-08-17T00:28:30;22.90;;;20.88;;
55112;SDS011;41006;50.920;3.456;2023-08-17T00:29:03;21.67;;;20.13;;
55112;SDS011;41006;50.920;3.456;2023-08-17T00:29:33;22.23;;;20.45;;
55112;SDS011;41006;50.920;3.456;2023-08-17T00:30:07;22.75;;;21.02;;
55112;SDS011;41006;50.920;3.456;2023-08-17T00:30:38;22.90;;;21.10;;
55112;SDS011;41006;50.920;3.456;2023-08-17T00:31:08;22.70;;;20.92;;
55112;SDS011;41006;50.920;3.456;2023-08-17T00:31:41;23.40;;;21.35;;
55112;SDS011;41006;50.920;3.456;2023-08-17T00:32:11;22.88;;;21.30;;
55112;SDS011;41006;50.920;3.456;2023-08-17T00:32:47;22.85;;;21.20;;
55112;SDS011;41006;50.920;3.456;2023-08-17T00:33:19;21.60;;;19.90;;
55112;SDS011;41006;50.920;3.456;2023-08-17T00:33:55;22.67;;;20.95;;
55112;SDS011;41006;50.920;3.456;2023-08-17T00:34:28;23.77;;;21.42;;
55112;SDS011;41006;50.920;3.456;2023-08-17T00:34:58;21.98;;;20.48;;
55112;SDS011;41006;50.920;3.456;2023-08-17T00:35:29;24.25;;;22.38;;
55112;SDS011;41006;50.920;3.456;2023-08-17T00:36:02;22.80;;;21.02;;
55112;SDS011;41006;50.920;3.456;2023-08-17T00:36:35;22.85;;;20.83;;
55112;SDS011;41006;50.920;3.456;2023-08-17T00:37:10;23.42;;;21.58;;
55112;SDS011;41006;50.920;3.456;2023-08-17T00:37:40;21.25;;;19.55;;
55112;SDS011;41006;50.920;3.456;2023-08-17T00:38:11;22.70;;;20.77;;
55112;SDS011;41006;50.920;3.456;2023-08-17T00:38:42;22.23;;;20.38;;
55112;SDS011;41006;50.920;3.456;2023-08-17T00:39:13;22.02;;;20.27;;
55112;SDS011;41006;50.920;3.456;2023-08-17T00:39:45;22.38;;;20.52;;
55112;SDS011;41006;50.920;3.456;2023-08-17T00:40:16;21.55;;;19.55;;
55112;SDS011;41006;50.920;3.456;2023-08-17T00:40:46;22.73;;;20.65;;
55112;SDS011;41006;50.920;3.456;2023-08-17T00:41:17;22.48;;;20.77;;
55112;SDS011;41006;50.920;3.456;2023-08-17T00:41:47;21.92;;;20.02;;
55112;SDS011;41006;50.920;3.456;2023-08-17T00:42:20;23.52;;;21.65;;
55112;SDS011;41006;50.920;3.456;2023-08-17T00:42:50;22.50;;;20.75;;
55112;SDS011;41006;50.920;3.456;2023-08-17T00:43:22;24.67;;;22.55;;
55112;SDS011;41006;50.920;3.456;2023-08-17T00:43:53;21.85;;;20.15;;
55112;SDS011;41006;50.920;3.456;2023-08-17T00:44:28;24.15;;;22.05;;
55112;SDS011;41006;50.920;3.456;2023-08-17T00:45:00;23.15;;;21.45;;
55112;SDS011;41006;50.920;3.456;2023-08-17T00:45:33;23.70;;;21.65;;
55112;SDS011;41006;50.920;3.456;2023-08-17T00:46:05;23.48;;;21.73;;
55112;SDS011;41006;50.920;3.456;2023-08-17T00:46:39;24.15;;;22.35;;
55112;SDS011;41006;50.920;3.456;2023-08-17T00:47:10;25.30;;;23.23;;
55112;SDS011;41006;50.920;3.456;2023-08-17T00:47:47;23.92;;;21.77;;
55112;SDS011;41006;50.920;3.456;2023-08-17T00:48:18;25.60;;;23.23;;
55112;SDS011;41006;50.920;3.456;2023-08-17T00:48:48;24.50;;;22.60;;
55112;SDS011;41006;50.920;3.456;2023-08-17T00:49:19;24.17;;;22.17;;
55112;SDS011;41006;50.920;3.456;2023-08-17T00:49:53;24.23;;;22.02;;
55112;SDS011;41006;50.920;3.456;2023-08-17T00:50:24;24.23;;;22.02;;
55112;SDS011;41006;50.920;3.456;2023-08-17T00:50:58;24.80;;;22.85;;
55112;SDS011;41006;50.920;3.456;2023-08-17T00:51:29;23.63;;;21.70;;
55112;SDS011;41006;50.920;3.456;2023-08-17T00:52:03;23.65;;;21.73;;
55112;SDS011;41006;50.920;3.456;2023-08-17T00:52:36;23.58;;;21.88;;
55112;SDS011;41006;50.920;3.456;2023-08-17T00:53:07;23.15;;;21.45;;
55112;SDS011;41006;50.920;3.456;2023-08-17T00:53:48;23.10;;;21.30;;
55112;SDS011;41006;50.920;3.456;2023-08-17T00:54:23;24.23;;;22.17;;
55112;SDS011;41006;50.920;3.456;2023-08-17T00:54:56;23.10;;;21.40;;
55112;SDS011;41006;50.920;3.456;2023-08-17T00:55:30;22.80;;;21.20;;
55112;SDS011;41006;50.920;3.456;2023-08-17T00:56:01;23.98;;;22.08;;
55112;SDS011;41006;50.920;3.456;2023-08-17T00:56:32;24.17;;;22.23;;
55112;SDS011;41006;50.920;3.456;2023-08-17T00:57:08;24.45;;;22.38;;
55112;SDS011;41006;50.920;3.456;2023-08-17T00:57:41;23.42;;;21.20;;
55112;SDS011;41006;50.920;3.456;2023-08-17T00:58:12;23.45;;;21.67;;
55112;SDS011;41006;50.920;3.456;2023-08-17T00:58:46;22.73;;;21.00;;
55112;SDS011;41006;50.920;3.456;2023-08-17T00:59:20;23.23;;;21.45;;
55112;SDS011;41006;50.920;3.456;2023-08-17T00:59:51;24.00;;;21.85;;
55112;SDS011;41006;50.920;3.456;2023-08-17T01:00:25;23.38;;;21.58;;
55112;SDS011;41006;50.920;3.456;2023-08-17T01:00:58;23.70;;;21.98;;
55112;SDS011;41006;50.920;3.456;2023-08-17T01:01:29;24.40;;;22.50;;
55112;SDS011;41006;50.920;3.456;2023-08-17T01:02:00;23.77;;;22.08;;
55112;SDS011;41006;50.920;3.456;2023-08-17T01:02:34;24.15;;;22.13;;
55112;SDS011;41006;50.920;3.456;2023-08-17T01:03:07;24.75;;;23.05;;
55112;SDS011;41006;50.920;3.456;2023-08-17T01:03:39;25.55;;;23.38;;
55112;SDS011;41006;50.920;3.456;2023-08-17T01:04:11;24.85;;;23.00;;
55112;SDS011;41006;50.920;3.456;2023-08-17T01:04:42;25.17;;;23.15;;
55112;SDS011;41006;50.920;3.456;2023-08-17T01:05:14;25.00;;;23.13;;
55112;SDS011;41006;50.920;3.456;2023-08-17T01:05:47;26.02;;;24.02;;
55112;SDS011;41006;50.920;3.456;2023-08-17T01:06:18;25.45;;;23.17;;
55112;SDS011;41006;50.920;3.456;2023-08-17T01:06:49;26.13;;;24.20;;
55112;SDS011;41006;50.920;3.456;2023-08-17T01:07:21;26.35;;;24.23;;
55112;SDS011;41006;50.920;3.456;2023-08-17T01:07:52;25.42;;;23.80;;
55112;SDS011;41006;50.920;3.456;2023-08-17T01:08:24;25.92;;;23.85;;
55112;SDS011;41006;50.920;3.456;2023-08-17T01:08:57;25.25;;;23.50;;
55112;SDS011;41006;50.920;3.456;2023-08-17T01:09:28;25.60;;;23.50;;
55112;SDS011;41006;50.920;3.456;2023-08-17T01:10:04;25.77;;;23.88;;
55112;SDS011;41006;50.920;3.456;2023-08-17T01:11:41;26.70;;;24.50;;
55112;SDS011;41006;50.920;3.456;2023-08-17T01:12:38;25.63;;;23.58;;
55112;SDS011;41006;50.920;3.456;2023-08-17T01:14:39;25.52;;;23.35;;
55112;SDS011;41006;50.920;3.456;2023-08-17T01:15:31;24.40;;;22.52;;
55112;SDS011;41006;50.920;3.456;2023-08-17T01:16:05;23.40;;;21.73;;
55112;SDS011;41006;50.920;3.456;2023-08-17T01:16:51;24.60;;;22.63;;
55112;SDS011;41006;50.920;3.456;2023-08-17T01:17:35;24.67;;;22.77;;
55112;SDS011;41006;50.920;3.456;2023-08-17T01:19:07;25.20;;;23.33;;
55112;SDS011;41006;50.920;3.456;2023-08-17T01:19:41;22.98;;;21.17;;
55112;SDS011;41006;50.920;3.456;2023-08-17T01:20:15;24.45;;;22.55;;
55112;SDS011;41006;50.920;3.456;2023-08-17T01:20:48;25.10;;;22.85;;
55112;SDS011;41006;50.920;3.456;2023-08-17T01:21:21;24.73;;;22.95;;
55112;SDS011;41006;50.920;3.456;2023-08-17T01:21:57;23.50;;;21.73;;
55112;SDS011;41006;50.920;3.456;2023-08-17T01:22:32;23.80;;;22.10;;
55112;SDS011;41006;50.920;3.456;2023-08-17T01:23:10;23.92;;;21.95;;
55112;SDS011;41006;50.920;3.456;2023-08-17T01:23:48;23.45;;;21.63;;
55112;SDS011;41006;50.920;3.456;2023-08-17T01:24:19;22.98;;;21.13;;
55112;SDS011;41006;50.920;3.456;2023-08-17T01:24:55;23.42;;;21.55;;
55112;SDS011;41006;50.920;3.456;2023-08-17T01:25:28;23.83;;;22.00;;
55112;SDS011;41006;50.920;3.456;2023-08-17T01:25:58;23.63;;;21.95;;
55112;SDS011;41006;50.920;3.456;2023-08-17T01:26:33;21.95;;;20.45;;
55112;SDS011;41006;50.920;3.456;2023-08-17T01:27:03;22.65;;;21.15;;
55112;SDS011;41006;50.920;3.456;2023-08-17T01:27:40;23.67;;;21.88;;
55112;SDS011;41006;50.920;3.456;2023-08-17T01:28:14;24.23;;;22.23;;
55112;SDS011;41006;50.920;3.456;2023-08-17T01:28:47;23.85;;;22.10;;
55112;SDS011;41006;50.920;3.456;2023-08-17T01:29:18;25.92;;;23.80;;
55112;SDS011;41006;50.920;3.456;2023-08-17T01:29:48;24.95;;;23.05;;
55112;SDS011;41006;50.920;3.456;2023-08-17T01:30:21;24.55;;;22.85;;
55112;SDS011;41006;50.920;3.456;2023-08-17T01:31:00;24.25;;;22.55;;
55112;SDS011;41006;50.920;3.456;2023-08-17T01:32:38;22.98;;;21.05;;
55112;SDS011;41006;50.920;3.456;2023-08-17T01:33:09;22.20;;;20.45;;
55112;SDS011;41006;50.920;3.456;2023-08-17T01:33:50;23.45;;;21.95;;
55112;SDS011;41006;50.920;3.456;2023-08-17T01:34:26;22.92;;;21.33;;
55112;SDS011;41006;50.920;3.456;2023-08-17T01:35:04;25.38;;;23.60;;
55112;SDS011;41006;50.920;3.456;2023-08-17T01:35:48;24.00;;;22.40;;
55112;SDS011;41006;50.920;3.456;2023-08-17T01:36:26;24.90;;;23.00;;
55112;SDS011;41006;50.920;3.456;2023-08-17T01:37:00;25.17;;;22.63;;
55112;SDS011;41006;50.920;3.456;2023-08-17T01:37:36;25.60;;;23.70;;
55112;SDS011;41006;50.920;3.456;2023-08-17T01:38:16;23.92;;;22.35;;
55112;SDS011;41006;50.920;3.456;2023-08-17T01:38:49;26.08;;;24.25;;
55112;SDS011;41006;50.920;3.456;2023-08-17T01:39:23;25.55;;;23.63;;
55112;SDS011;41006;50.920;3.456;2023-08-17T01:40:00;25.25;;;23.30;;
55112;SDS011;41006;50.920;3.456;2023-08-17T01:40:35;24.67;;;22.95;;
55112;SDS011;41006;50.920;3.456;2023-08-17T01:41:08;27.08;;;25.17;;
55112;SDS011;41006;50.920;3.456;2023-08-17T01:41:45;27.17;;;25.38;;
55112;SDS011;41006;50.920;3.456;2023-08-17T01:42:17;26.52;;;24.83;;
55112;SDS011;41006;50.920;3.456;2023-08-17T01:42:53;28.83;;;26.92;;
55112;SDS011;41006;50.920;3.456;2023-08-17T01:43:29;27.05;;;25.35;;
55112;SDS011;41006;50.920;3.456;2023-08-17T01:44:02;24.23;;;22.38;;
55112;SDS011;41006;50.920;3.456;2023-08-17T01:44:36;25.30;;;23.23;;
55112;SDS011;41006;50.920;3.456;2023-08-17T01:45:07;24.40;;;22.58;;
55112;SDS011;41006;50.920;3.456;2023-08-17T01:45:43;24.50;;;22.73;;
55112;SDS011;41006;50.920;3.456;2023-08-17T01:46:17;24.20;;;22.42;;
55112;SDS011;41006;50.920;3.456;2023-08-17T01:46:50;25.50;;;23.58;;
55112;SDS011;41006;50.920;3.456;2023-08-17T01:47:21;24.30;;;22.48;;
55112;SDS011;41006;50.920;3.456;2023-08-17T01:47:56;24.08;;;22.48;;
55112;SDS011;41006;50.920;3.456;2023-08-17T01:48:27;22.75;;;21.15;;
55112;SDS011;41006;50.920;3.456;2023-08-17T01:48:59;26.63;;;24.63;;
55112;SDS011;41006;50.920;3.456;2023-08-17T01:49:33;24.48;;;22.65;;
55112;SDS011;41006;50.920;3.456;2023-08-17T01:50:03;25.05;;;23.45;;
55112;SDS011;41006;50.920;3.456;2023-08-17T01:50:34;23.65;;;22.15;;
55112;SDS011;41006;50.920;3.456;2023-08-17T01:51:05;23.52;;;21.60;;
55112;SDS011;41006;50.920;3.456;2023-08-17T01:51:40;25.15;;;23.23;;
55112;SDS011;41006;50.920;3.456;2023-08-17T01:52:10;24.55;;;22.80;;
55112;SDS011;41006;50.920;3.456;2023-08-17T01:52:40;23.20;;;21.67;;
55112;SDS011;41006;50.920;3.456;2023-08-17T01:53:13;24.60;;;22.60;;
55112;SDS011;41006;50.920;3.456;2023-08-17T01:53:48;23.80;;;22.30;;
55112;SDS011;41006;50.920;3.456;2023-08-17T01:54:19;22.85;;;21.25;;
55112;SDS011;41006;50.920;3.456;2023-08-17T01:54:51;22.00;;;20.60;;
55112;SDS011;41006;50.920;3.456;2023-08-17T01:55:24;24.02;;;22.60;;
55112;SDS011;41006;50.920;3.456;2023-08-17T01:56:00;23.35;;;21.70;;
55112;SDS011;41006;50.920;3.456;2023-08-17T01:56:33;25.67;;;23.55;;
55112;SDS011;41006;50.920;3.456;2023-08-17T01:57:05;24.65;;;22.90;;
55112;SDS011;41006;50.920;3.456;2023-08-17T01:57:36;25.58;;;23.45;;
55112;SDS011;41006;50.920;3.456;2023-08-17T01:58:08;23.23;;;21.65;;
55112;SDS011;41006;50.920;3.456;2023-08-17T01:58:39;21.58;;;19.90;;
55112;SDS011;41006;50.920;3.456;2023-08-17T01:59:12;24.95;;;23.33;;
55112;SDS011;41006;50.920;3.456;2023-08-17T01:59:44;26.27;;;24.27;;
55112;SDS011;41006;50.920;3.456;2023-08-17T02:00:15;24.80;;;23.13;;
55112;SDS011;41006;50.920;3.456;2023-08-17T02:00:45;24.63;;;23.08;;
55112;SDS011;41006;50.920;3.456;2023-08-17T02:01:16;25.17;;;23.42;;
55112;SDS011;41006;50.920;3.456;2023-08-17T02:01:49;23.83;;;21.92;;
55112;SDS011;41006;50.920;3.456;2023-08-17T02:02:19;20.67;;;19.17;;
55112;SDS011;41006;50.920;3.456;2023-08-17T02:02:54;26.02;;;24.33;;
55112;SDS011;41006;50.920;3.456;2023-08-17T02:03:31;22.38;;;20.67;;
55112;SDS011;41006;50.920;3.456;2023-08-17T02:04:03;26.83;;;25.08;;
55112;SDS011;41006;50.920;3.456;2023-08-17T02:04:36;25.48;;;23.85;;
55112;SDS011;41006;50.920;3.456;2023-08-17T02:05:07;25.25;;;23.65;;
55112;SDS011;41006;50.920;3.456;2023-08-17T02:05:38;23.73;;;22.23;;
55112;SDS011;41006;50.920;3.456;2023-08-17T02:06:16;24.33;;;22.67;;
55112;SDS011;41006;50.920;3.456;2023-08-17T02:06:49;23.98;;;22.50;;
55112;SDS011;41006;50.920;3.456;2023-08-17T02:07:24;23.25;;;21.63;;
55112;SDS011;41006;50.920;3.456;2023-08-17T02:07:56;24.52;;;22.75;;
55112;SDS011;41006;50.920;3.456;2023-08-17T02:08:29;24.40;;;22.60;;
55112;SDS011;41006;50.920;3.456;2023-08-17T02:09:00;24.02;;;22.42;;
55112;SDS011;41006;50.920;3.456;2023-08-17T02:09:32;23.92;;;22.00;;
55112;SDS011;41006;50.920;3.456;2023-08-17T02:10:05;23.83;;;22.27;;
55112;SDS011;41006;50.920;3.456;2023-08-17T02:10:41;24.55;;;22.85;;
55112;SDS011;41006;50.920;3.456;2023-08-17T02:11:14;24.48;;;22.88;;
55112;SDS011;41006;50.920;3.456;2023-08-17T02:11:46;24.58;;;22.88;;
55112;SDS011;41006;50.920;3.456;2023-08-17T02:12:17;23.17;;;21.63;;
55112;SDS011;41006;50.920;3.456;2023-08-17T02:12:47;22.05;;;20.63;;
55112;SDS011;41006;50.920;3.456;2023-08-17T02:13:20;22.63;;;21.13;;
55112;SDS011;41006;50.920;3.456;2023-08-17T02:13:51;23.95;;;22.13;;
55112;SDS011;41006;50.920;3.456;2023-08-17T02:14:26;24.30;;;22.58;;
55112;SDS011;41006;50.920;3.456;2023-08-17T02:14:59;22.55;;;20.95;;
55112;SDS011;41006;50.920;3.456;2023-08-17T02:15:31;22.92;;;20.98;;
55112;SDS011;41006;50.920;3.456;2023-08-17T02:16:02;21.52;;;20.00;;
55112;SDS011;41006;50.920;3.456;2023-08-17T02:16:34;22.52;;;20.75;;
55112;SDS011;41006;50.920;3.456;2023-08-17T02:17:05;23.10;;;21.05;;
55112;SDS011;41006;50.920;3.456;2023-08-17T02:17:38;21.52;;;20.05;;
55112;SDS011;41006;50.920;3.456;2023-08-17T02:18:09;21.95;;;20.20;;
55112;SDS011;41006;50.920;3.456;2023-08-17T02:18:41;22.48;;;20.77;;
55112;SDS011;41006;50.920;3.456;2023-08-17T02:19:12;22.20;;;20.70;;
55112;SDS011;41006;50.920;3.456;2023-08-17T02:19:45;22.80;;;21.08;;
55112;SDS011;41006;50.920;3.456;2023-08-17T02:20:17;21.63;;;20.13;;
55112;SDS011;41006;50.920;3.456;2023-08-17T02:20:48;21.30;;;19.55;;
55112;SDS011;41006;50.920;3.456;2023-08-17T02:21:18;22.85;;;20.92;;
55112;SDS011;41006;50.920;3.456;2023-08-17T02:21:48;21.85;;;20.15;;
55112;SDS011;41006;50.920;3.456;2023-08-17T02:22:21;20.85;;;19.45;;
55112;SDS011;41006;50.920;3.456;2023-08-17T02:22:51;21.05;;;19.45;;
55112;SDS011;41006;50.920;3.456;2023-08-17T02:23:22;22.55;;;20.90;;
55112;SDS011;41006;50.920;3.456;2023-08-17T02:23:52;21.52;;;19.92;;
55112;SDS011;41006;50.920;3.456;2023-08-17T02:24:25;22.83;;;20.88;;
55112;SDS011;41006;50.920;3.456;2023-08-17T02:24:55;22.20;;;20.40;;
55112;SDS011;41006;50.920;3.456;2023-08-17T02:25:28;21.70;;;20.17;;
55112;SDS011;41006;50.920;3.456;2023-08-17T02:26:05;22.95;;;20.90;;
55112;SDS011;41006;50.920;3.456;2023-08-17T02:26:35;22.83;;;21.08;;
55112;SDS011;41006;50.920;3.456;2023-08-17T02:27:08;21.92;;;20.38;;
55112;SDS011;41006;50.920;3.456;2023-08-17T02:27:42;22.98;;;21.05;;
55112;SDS011;41006;50.920;3.456;2023-08-17T02:28:12;22.35;;;20.83;;
55112;SDS011;41006;50.920;3.456;2023-08-17T02:28:44;22.65;;;20.95;;
55112;SDS011;41006;50.920;3.456;2023-08-17T02:29:23;23.48;;;21.30;;
55112;SDS011;41006;50.920;3.456;2023-08-17T02:29:55;21.85;;;20.45;;
55112;SDS011;41006;50.920;3.456;2023-08-17T02:30:26;23.05;;;21.35;;
55112;SDS011;41006;50.920;3.456;2023-08-17T02:31:01;22.92;;;21.20;;
55112;SDS011;41006;50.920;3.456;2023-08-17T02:31:31;22.65;;;21.17;;
55112;SDS011;41006;50.920;3.456;2023-08-17T02:32:02;22.55;;;20.80;;
55112;SDS011;41006;50.920;3.456;2023-08-17T02:32:35;22.52;;;20.67;;
55112;SDS011;41006;50.920;3.456;2023-08-17T02:33:05;22.42;;;20.67;;
55112;SDS011;41006;50.920;3.456;2023-08-17T02:33:38;21.63;;;20.15;;
55112;SDS011;41006;50.920;3.456;2023-08-17T02:34:08;21.25;;;19.92;;
55112;SDS011;41006;50.920;3.456;2023-08-17T02:34:41;22.73;;;20.73;;
55112;SDS011;41006;50.920;3.456;2023-08-17T02:35:13;22.05;;;20.30;;
55112;SDS011;41006;50.920;3.456;2023-08-17T02:35:49;24.73;;;20.45;;
55112;SDS011;41006;50.920;3.456;2023-08-17T02:36:20;22.73;;;21.20;;
55112;SDS011;41006;50.920;3.456;2023-08-17T02:36:58;21.95;;;20.38;;
55112;SDS011;41006;50.920;3.456;2023-08-17T02:37:33;22.15;;;20.30;;
55112;SDS011;41006;50.920;3.456;2023-08-17T02:38:03;22.55;;;20.80;;
55112;SDS011;41006;50.920;3.456;2023-08-17T02:38:34;21.95;;;20.60;;
55112;SDS011;41006;50.920;3.456;2023-08-17T02:39:04;21.75;;;20.33;;
55112;SDS011;41006;50.920;3.456;2023-08-17T02:39:37;22.33;;;20.83;;
55112;SDS011;41006;50.920;3.456;2023-08-17T02:40:10;20.85;;;19.48;;
55112;SDS011;41006;50.920;3.456;2023-08-17T02:40:40;20.50;;;19.15;;
55112;SDS011;41006;50.920;3.456;2023-08-17T02:41:11;20.50;;;19.10;;
55112;SDS011;41006;50.920;3.456;2023-08-17T02:41:41;20.80;;;19.08;;
55112;SDS011;41006;50.920;3.456;2023-08-17T02:42:11;20.33;;;18.83;;
55112;SDS011;41006;50.920;3.456;2023-08-17T02:42:47;21.65;;;20.13;;
55112;SDS011;41006;50.920;3.456;2023-08-17T02:43:20;21.48;;;19.85;;
55112;SDS011;41006;50.920;3.456;2023-08-17T02:43:50;20.13;;;18.45;;
55112;SDS011;41006;50.920;3.456;2023-08-17T02:44:27;20.17;;;18.58;;
55112;SDS011;41006;50.920;3.456;2023-08-17T02:45:00;19.65;;;18.00;;
55112;SDS011;41006;50.920;3.456;2023-08-17T02:45:33;20.58;;;18.95;;
55112;SDS011;41006;50.920;3.456;2023-08-17T02:46:06;20.23;;;18.80;;
55112;SDS011;41006;50.920;3.456;2023-08-17T02:46:37;20.40;;;18.85;;
55112;SDS011;41006;50.920;3.456;2023-08-17T02:47:10;20.73;;;19.30;;
55112;SDS011;41006;50.920;3.456;2023-08-17T02:47:42;19.55;;;18.05;;
55112;SDS011;41006;50.920;3.456;2023-08-17T02:48:12;19.92;;;18.63;;
55112;SDS011;41006;50.920;3.456;2023-08-17T02:48:45;19.35;;;17.77;;
55112;SDS011;41006;50.920;3.456;2023-08-17T02:49:16;19.15;;;17.65;;
55112;SDS011;41006;50.920;3.456;2023-08-17T02:49:46;18.55;;;17.45;;
55112;SDS011;41006;50.920;3.456;2023-08-17T02:50:19;19.10;;;17.75;;
55112;SDS011;41006;50.920;3.456;2023-08-17T02:50:55;18.58;;;17.00;;
55112;SDS011;41006;50.920;3.456;2023-08-17T02:51:25;18.65;;;17.10;;
55112;SDS011;41006;50.920;3.456;2023-08-17T02:51:58;18.88;;;17.58;;
55112;SDS011;41006;50.920;3.456;2023-08-17T02:52:28;18.70;;;17.17;;
55112;SDS011;41006;50.920;3.456;2023-08-17T02:52:59;18.55;;;17.15;;
55112;SDS011;41006;50.920;3.456;2023-08-17T02:53:32;18.60;;;17.10;;
55112;SDS011;41006;50.920;3.456;2023-08-17T02:54:03;18.75;;;17.27;;
55112;SDS011;41006;50.920;3.456;2023-08-17T02:54:33;17.08;;;16.08;;
55112;SDS011;41006;50.920;3.456;2023-08-17T02:55:06;18.90;;;17.52;;
55112;SDS011;41006;50.920;3.456;2023-08-17T02:55:37;19.08;;;17.35;;
55112;SDS011;41006;50.920;3.456;2023-08-17T02:56:07;18.90;;;17.40;;
55112;SDS011;41006;50.920;3.456;2023-08-17T02:56:44;17.80;;;16.48;;
55112;SDS011;41006;50.920;3.456;2023-08-17T02:57:14;17.85;;;16.52;;
55112;SDS011;41006;50.920;3.456;2023-08-17T02:57:44;18.33;;;16.50;;
55112;SDS011;41006;50.920;3.456;2023-08-17T02:58:15;18.70;;;17.02;;
55112;SDS011;41006;50.920;3.456;2023-08-17T02:58:47;18.88;;;17.55;;
55112;SDS011;41006;50.920;3.456;2023-08-17T02:59:21;18.60;;;17.40;;
55112;SDS011;41006;50.920;3.456;2023-08-17T02:59:54;19.73;;;18.23;;
55112;SDS011;41006;50.920;3.456;2023-08-17T03:00:24;18.95;;;17.52;;
55112;SDS011;41006;50.920;3.456;2023-08-17T03:00:57;17.88;;;16.48;;
55112;SDS011;41006;50.920;3.456;2023-08-17T03:01:34;18.65;;;17.25;;
55112;SDS011;41006;50.920;3.456;2023-08-17T03:02:05;18.65;;;17.23;;
55112;SDS011;41006;50.920;3.456;2023-08-17T03:02:35;18.60;;;17.33;;
55112;SDS011;41006;50.920;3.456;2023-08-17T03:03:06;18.73;;;17.27;;
55112;SDS011;41006;50.920;3.456;2023-08-17T03:03:36;18.65;;;17.33;;
55112;SDS011;41006;50.920;3.456;2023-08-17T03:04:06;18.80;;;17.33;;
55112;SDS011;41006;50.920;3.456;2023-08-17T03:04:37;18.42;;;17.05;;
55112;SDS011;41006;50.920;3.456;2023-08-17T03:05:11;18.48;;;17.30;;
55112;SDS011;41006;50.920;3.456;2023-08-17T03:05:42;17.48;;;16.13;;
55112;SDS011;41006;50.920;3.456;2023-08-17T03:06:14;18.73;;;17.50;;
55112;SDS011;41006;50.920;3.456;2023-08-17T03:06:47;19.45;;;18.10;;
55112;SDS011;41006;50.920;3.456;2023-08-17T03:07:20;19.02;;;17.60;;
55112;SDS011;41006;50.920;3.456;2023-08-17T03:07:58;18.77;;;17.38;;
55112;SDS011;41006;50.920;3.456;2023-08-17T03:08:31;19.83;;;18.02;;
55112;SDS011;41006;50.920;3.456;2023-08-17T03:09:02;17.75;;;16.65;;
55112;SDS011;41006;50.920;3.456;2023-08-17T03:09:35;17.50;;;16.20;;
55112;SDS011;41006;50.920;3.456;2023-08-17T03:10:10;17.90;;;16.50;;
55112;SDS011;41006;50.920;3.456;2023-08-17T03:10:43;17.98;;;16.45;;
55112;SDS011;41006;50.920;3.456;2023-08-17T03:11:17;16.92;;;15.82;;
55112;SDS011;41006;50.920;3.456;2023-08-17T03:11:47;17.52;;;16.05;;
55112;SDS011;41006;50.920;3.456;2023-08-17T03:12:18;18.00;;;16.77;;
55112;SDS011;41006;50.920;3.456;2023-08-17T03:12:48;18.65;;;17.10;;
55112;SDS011;41006;50.920;3.456;2023-08-17T03:13:18;17.52;;;16.15;;
55112;SDS011;41006;50.920;3.456;2023-08-17T03:13:52;18.00;;;16.63;;
55112;SDS011;41006;50.920;3.456;2023-08-17T03:14:32;18.15;;;16.70;;
55112;SDS011;41006;50.920;3.456;2023-08-17T03:15:08;18.30;;;16.48;;
55112;SDS011;41006;50.920;3.456;2023-08-17T03:15:40;17.98;;;16.63;;
55112;SDS011;41006;50.920;3.456;2023-08-17T03:16:11;18.67;;;17.17;;